PWSweather.com
Personal Weather Stations
Station Observations
KVAGLENALL
West Henrico, Glen Allen, VA 23060-6503

West HenricoGlen Allen, VA 23060-6503

Lat: 37.6554, Lon: -77.5693

Elevation: 273

Station Type: Davis Vantage Pro II

www.glenallenweather.com

High Low Average
Temperature 84.1°F28.9°C 72.5°F22.5°C 77.1°F25.1°C
Dew Point 76.8°F24.9°C 71.0°F21.7°C 73.7°F23.2°C
Winds 11.0 mph 17.7 kmh Calm Calm 3.0 mph E4.8 kmh E
Wind Gusts 12.1 mph19.5 kmh -- 6.0 mph9.7 kmh
Humidity 96% 78% 90%
Pressure 30.07 in1018.3 mb 29.99 in1015.6 mb -
Precipitation 0.00 in0.0 mm - -
Hour Temp Dew Point Humidity Winds Wind Gusts Pressure Precip Precip Rate Daily Precip Total
12:00 AM 75.8°F24.3°C 71.6°F22.0°C 87% Calm Calm 2.0 mph3.2 kmh 30.00 in1015.9 mb 0.00 in0.0 mm 0.00 in0.0 mm 0.00 in0.0 mm
12:15 AM 75.8°F24.3°C 71.6°F22.0°C 87% 4.0 mph E6.4 kmh E 6.1 mph9.8 kmh 30.00 in1015.9 mb 0.00 in0.0 mm 0.00 in0.0 mm 0.00 in0.0 mm
12:30 AM 75.8°F24.3°C 71.6°F22.0°C 87% 1.0 mph E1.6 kmh E 1.0 mph1.6 kmh 30.00 in1015.9 mb 0.00 in0.0 mm 0.00 in0.0 mm 0.00 in0.0 mm
12:45 AM 75.5°F24.2°C 72.0°F22.2°C 89% 2.0 mph ESE3.2 kmh ESE 4.0 mph6.4 kmh 30.00 in1015.9 mb 0.00 in0.0 mm 0.00 in0.0 mm 0.00 in0.0 mm
01:00 AM 75.2°F24.0°C 72.0°F22.2°C 90% 2.0 mph E3.2 kmh E 3.0 mph4.8 kmh 30.00 in1015.9 mb 0.00 in0.0 mm 0.00 in0.0 mm 0.00 in0.0 mm
01:15 AM 74.8°F23.8°C 72.0°F22.2°C 91% 2.0 mph ESE3.2 kmh ESE 3.0 mph4.8 kmh 30.00 in1015.9 mb 0.00 in0.0 mm 0.00 in0.0 mm 0.00 in0.0 mm
01:30 AM 74.6°F23.7°C 72.1°F22.3°C 92% 1.0 mph NE1.6 kmh NE 3.0 mph4.8 kmh 30.00 in1015.9 mb 0.00 in0.0 mm 0.00 in0.0 mm 0.00 in0.0 mm
01:45 AM 74.4°F23.6°C 72.2°F22.3°C 93% 2.0 mph E3.2 kmh E 3.0 mph4.8 kmh 29.99 in1015.6 mb 0.00 in0.0 mm 0.00 in0.0 mm 0.00 in0.0 mm
02:00 AM 74.3°F23.5°C 72.1°F22.3°C 93% 2.0 mph ENE3.2 kmh ENE 2.0 mph3.2 kmh 30.00 in1015.9 mb 0.00 in0.0 mm 0.00 in0.0 mm 0.00 in0.0 mm
02:15 AM 74.2°F23.4°C 72.0°F22.2°C 93% 2.0 mph NNE3.2 kmh NNE 4.0 mph6.4 kmh 30.00 in1015.9 mb 0.00 in0.0 mm 0.00 in0.0 mm 0.00 in0.0 mm
02:30 AM 74.1°F23.4°C 72.2°F22.3°C 94% 2.0 mph NNE3.2 kmh NNE 5.1 mph8.2 kmh 30.00 in1015.9 mb 0.00 in0.0 mm 0.00 in0.0 mm 0.00 in0.0 mm
02:45 AM 74.1°F23.4°C 71.9°F22.2°C 93% 3.0 mph E4.8 kmh E 3.0 mph4.8 kmh 30.00 in1015.9 mb 0.00 in0.0 mm 0.00 in0.0 mm 0.00 in0.0 mm
03:00 AM 74.1°F23.4°C 72.2°F22.3°C 94% Calm Calm 3.0 mph4.8 kmh 30.00 in1015.9 mb 0.00 in0.0 mm 0.00 in0.0 mm 0.00 in0.0 mm
03:15 AM 74.1°F23.4°C 72.2°F22.3°C 94% 1.0 mph ESE1.6 kmh ESE 4.0 mph6.4 kmh 29.99 in1015.6 mb 0.01 in0.3 mm 0.04 in1.0 mm 0.01 in0.3 mm
03:30 AM 73.9°F23.3°C 72.4°F22.4°C 95% 2.0 mph E3.2 kmh E 3.0 mph4.8 kmh 29.99 in1015.6 mb 0.03 in0.8 mm 0.08 in2.0 mm 0.03 in0.8 mm
03:45 AM 73.9°F23.3°C 72.7°F22.6°C 96% 1.0 mph SE1.6 kmh SE 2.0 mph3.2 kmh 29.99 in1015.6 mb 0.04 in1.0 mm 0.04 in1.0 mm 0.04 in1.0 mm
04:00 AM 73.9°F23.3°C 72.7°F22.6°C 96% 2.0 mph N3.2 kmh N 4.0 mph6.4 kmh 30.00 in1015.9 mb 0.04 in1.0 mm 0.00 in0.0 mm 0.04 in1.0 mm
04:15 AM 73.9°F23.3°C 72.7°F22.6°C 96% 3.0 mph NE4.8 kmh NE 6.1 mph9.8 kmh 30.00 in1015.9 mb 0.04 in1.0 mm 0.00 in0.0 mm 0.04 in1.0 mm
04:30 AM 73.7°F23.2°C 72.5°F22.5°C 96% 4.0 mph NE6.4 kmh NE 7.1 mph11.4 kmh 30.01 in1016.3 mb 0.02 in0.5 mm 0.00 in0.0 mm 0.04 in1.0 mm
04:45 AM 73.6°F23.1°C 72.4°F22.4°C 96% 5.0 mph E8.0 kmh E 5.1 mph8.2 kmh 30.00 in1015.9 mb 0.02 in0.5 mm 0.00 in0.0 mm 0.04 in1.0 mm
05:00 AM 73.5°F23.1°C 72.3°F22.4°C 96% 4.0 mph N6.4 kmh N 9.1 mph14.6 kmh 30.02 in1016.6 mb 0.01 in0.3 mm 0.00 in0.0 mm 0.04 in1.0 mm
05:15 AM 73.4°F23.0°C 72.2°F22.3°C 96% 2.0 mph NE3.2 kmh NE 4.0 mph6.4 kmh 30.02 in1016.6 mb 0.01 in0.3 mm 0.00 in0.0 mm 0.04 in1.0 mm
05:30 AM 73.4°F23.0°C 72.2°F22.3°C 96% 4.0 mph NE6.4 kmh NE 8.1 mph13.0 kmh 30.02 in1016.6 mb 0.00 in0.0 mm 0.00 in0.0 mm 0.04 in1.0 mm
05:45 AM 73.2°F22.9°C 72.0°F22.2°C 96% 6.0 mph NE9.7 kmh NE 6.1 mph9.8 kmh 30.01 in1016.3 mb 0.00 in0.0 mm 0.00 in0.0 mm 0.04 in1.0 mm
06:00 AM 72.9°F22.7°C 71.7°F22.1°C 96% 3.0 mph NNW4.8 kmh NNW 4.0 mph6.4 kmh 30.01 in1016.3 mb 0.00 in0.0 mm 0.00 in0.0 mm 0.04 in1.0 mm
06:15 AM 72.8°F22.7°C 71.6°F22.0°C 96% 1.0 mph E1.6 kmh E 4.0 mph6.4 kmh 30.01 in1016.3 mb 0.00 in0.0 mm 0.00 in0.0 mm 0.04 in1.0 mm
06:30 AM 72.6°F22.6°C 71.4°F21.9°C 96% 1.0 mph ENE1.6 kmh ENE 4.0 mph6.4 kmh 30.02 in1016.6 mb 0.00 in0.0 mm 0.00 in0.0 mm 0.04 in1.0 mm
06:45 AM 72.7°F22.6°C 71.5°F21.9°C 96% 1.0 mph NNE1.6 kmh NNE 5.1 mph8.2 kmh 30.02 in1016.6 mb 0.01 in0.3 mm 0.04 in1.0 mm 0.05 in1.3 mm
07:00 AM 72.6°F22.6°C 71.4°F21.9°C 96% 2.0 mph N3.2 kmh N 3.0 mph4.8 kmh 30.03 in1016.9 mb 0.01 in0.3 mm 0.00 in0.0 mm 0.05 in1.3 mm
07:15 AM 72.7°F22.6°C 71.5°F21.9°C 96% Calm Calm 2.0 mph3.2 kmh 30.02 in1016.6 mb 0.01 in0.3 mm 0.00 in0.0 mm 0.05 in1.3 mm
07:30 AM 72.8°F22.7°C 71.6°F22.0°C 96% 3.0 mph NNE4.8 kmh NNE 3.0 mph4.8 kmh 30.03 in1016.9 mb 0.01 in0.3 mm 0.00 in0.0 mm 0.05 in1.3 mm
07:45 AM 72.8°F22.7°C 71.6°F22.0°C 96% 3.0 mph E4.8 kmh E 7.1 mph11.4 kmh 30.04 in1017.3 mb 0.01 in0.3 mm 0.00 in0.0 mm 0.05 in1.3 mm
08:00 AM 72.6°F22.6°C 71.4°F21.9°C 96% 5.0 mph N8.0 kmh N 10.1 mph16.3 kmh 30.05 in1017.6 mb 0.00 in0.0 mm 0.00 in0.0 mm 0.05 in1.3 mm
08:15 AM 72.6°F22.6°C 71.4°F21.9°C 96% 3.0 mph NE4.8 kmh NE 6.1 mph9.8 kmh 30.06 in1017.9 mb 0.00 in0.0 mm 0.00 in0.0 mm 0.05 in1.3 mm
08:30 AM 72.5°F22.5°C 71.3°F21.8°C 96% 2.0 mph ENE3.2 kmh ENE 12.1 mph19.5 kmh 30.05 in1017.6 mb 0.00 in0.0 mm 0.00 in0.0 mm 0.05 in1.3 mm
08:45 AM 72.5°F22.5°C 71.0°F21.7°C 95% 11.0 mph E17.7 kmh E 11.1 mph17.9 kmh 30.06 in1017.9 mb 0.00 in0.0 mm 0.00 in0.0 mm 0.05 in1.3 mm
09:00 AM 72.6°F22.6°C 71.1°F21.7°C 95% 1.0 mph E1.6 kmh E 4.0 mph6.4 kmh 30.06 in1017.9 mb 0.00 in0.0 mm 0.00 in0.0 mm 0.05 in1.3 mm
09:15 AM 72.8°F22.7°C 71.3°F21.8°C 95% 4.0 mph ESE6.4 kmh ESE 7.1 mph11.4 kmh 30.06 in1017.9 mb 0.00 in0.0 mm 0.00 in0.0 mm 0.05 in1.3 mm
09:30 AM 73.4°F23.0°C 71.9°F22.2°C 95% 5.0 mph E8.0 kmh E 5.1 mph8.2 kmh 30.06 in1017.9 mb 0.00 in0.0 mm 0.00 in0.0 mm 0.05 in1.3 mm
09:45 AM 74.2°F23.4°C 72.7°F22.6°C 95% 2.0 mph ESE3.2 kmh ESE 4.0 mph6.4 kmh 30.06 in1017.9 mb 0.00 in0.0 mm 0.00 in0.0 mm 0.05 in1.3 mm
10:00 AM 76.6°F24.8°C 74.4°F23.6°C 93% 3.0 mph ESE4.8 kmh ESE 3.0 mph4.8 kmh 30.06 in1017.9 mb 0.00 in0.0 mm 0.00 in0.0 mm 0.05 in1.3 mm
10:15 AM 77.4°F25.2°C 73.9°F23.3°C 89% 2.0 mph ESE3.2 kmh ESE 7.1 mph11.4 kmh 30.07 in1018.3 mb 0.00 in0.0 mm 0.00 in0.0 mm 0.05 in1.3 mm
10:30 AM 77.5°F25.3°C 74.0°F23.3°C 89% 1.0 mph SE1.6 kmh SE 7.1 mph11.4 kmh 30.06 in1017.9 mb 0.00 in0.0 mm 0.00 in0.0 mm 0.05 in1.3 mm
10:45 AM 78.0°F25.6°C 74.2°F23.4°C 88% 2.0 mph SE3.2 kmh SE 6.1 mph9.8 kmh 30.06 in1017.9 mb 0.00 in0.0 mm 0.00 in0.0 mm 0.05 in1.3 mm
11:00 AM 77.8°F25.4°C 74.0°F23.3°C 88% Calm Calm 3.0 mph4.8 kmh 30.07 in1018.3 mb 0.00 in0.0 mm 0.00 in0.0 mm 0.05 in1.3 mm
11:15 AM 78.7°F25.9°C 74.5°F23.6°C 87% 6.0 mph E9.7 kmh E 10.1 mph16.3 kmh 30.06 in1017.9 mb 0.00 in0.0 mm 0.00 in0.0 mm 0.05 in1.3 mm
11:30 AM 80.4°F26.9°C 75.1°F23.9°C 84% 8.0 mph ESE12.9 kmh ESE 8.1 mph13.0 kmh 30.06 in1017.9 mb 0.00 in0.0 mm 0.00 in0.0 mm 0.05 in1.3 mm
11:45 AM 81.1°F27.3°C 75.8°F24.3°C 84% 4.0 mph E6.4 kmh E 8.1 mph13.0 kmh 30.06 in1017.9 mb 0.00 in0.0 mm 0.00 in0.0 mm 0.05 in1.3 mm
12:00 PM 81.0°F27.2°C 75.0°F23.9°C 82% 3.0 mph E4.8 kmh E 5.1 mph8.2 kmh 30.05 in1017.6 mb 0.00 in0.0 mm 0.00 in0.0 mm 0.05 in1.3 mm
12:15 PM 82.0°F27.8°C 75.2°F24.0°C 80% 2.0 mph NNE3.2 kmh NNE 6.1 mph9.8 kmh 30.05 in1017.6 mb 0.00 in0.0 mm 0.00 in0.0 mm 0.05 in1.3 mm
12:30 PM 82.6°F28.1°C 76.2°F24.6°C 81% 4.0 mph SE6.4 kmh SE 10.1 mph16.3 kmh 30.06 in1017.9 mb 0.00 in0.0 mm 0.00 in0.0 mm 0.05 in1.3 mm
12:45 PM 82.0°F27.8°C 75.2°F24.0°C 80% 1.0 mph E1.6 kmh E 7.1 mph11.4 kmh 30.05 in1017.6 mb 0.00 in0.0 mm 0.00 in0.0 mm 0.05 in1.3 mm
01:00 PM 81.7°F27.6°C 74.6°F23.7°C 79% 3.0 mph N4.8 kmh N 5.1 mph8.2 kmh 30.05 in1017.6 mb 0.00 in0.0 mm 0.00 in0.0 mm 0.05 in1.3 mm
01:15 PM 82.5°F28.1°C 75.7°F24.3°C 80% 2.0 mph SE3.2 kmh SE 3.0 mph4.8 kmh 30.05 in1017.6 mb 0.00 in0.0 mm 0.00 in0.0 mm 0.05 in1.3 mm
01:30 PM 83.8°F28.8°C 76.2°F24.6°C 78% 1.0 mph E1.6 kmh E 7.1 mph11.4 kmh 30.05 in1017.6 mb 0.00 in0.0 mm 0.00 in0.0 mm 0.05 in1.3 mm
01:45 PM 83.5°F28.6°C 75.9°F24.4°C 78% 6.0 mph SE9.7 kmh SE 6.1 mph9.8 kmh 30.04 in1017.3 mb 0.00 in0.0 mm 0.00 in0.0 mm 0.05 in1.3 mm
02:00 PM 84.1°F28.9°C 76.5°F24.7°C 78% 6.0 mph SSE9.7 kmh SSE 8.1 mph13.0 kmh 30.03 in1016.9 mb 0.00 in0.0 mm 0.00 in0.0 mm 0.05 in1.3 mm
02:15 PM 83.4°F28.6°C 76.6°F24.8°C 80% 4.0 mph N6.4 kmh N 8.1 mph13.0 kmh 30.03 in1016.9 mb 0.00 in0.0 mm 0.00 in0.0 mm 0.05 in1.3 mm
02:30 PM 84.0°F28.9°C 76.8°F24.9°C 79% 5.0 mph NE8.0 kmh NE 7.1 mph11.4 kmh 30.03 in1016.9 mb 0.00 in0.0 mm 0.00 in0.0 mm 0.05 in1.3 mm
02:45 PM 83.8°F28.8°C 76.6°F24.8°C 79% 2.0 mph NNE3.2 kmh NNE 3.0 mph4.8 kmh 30.03 in1016.9 mb 0.00 in0.0 mm 0.00 in0.0 mm 0.05 in1.3 mm
03:00 PM 83.4°F28.6°C 76.2°F24.6°C 79% 4.0 mph NW6.4 kmh NW 8.1 mph13.0 kmh 30.03 in1016.9 mb 0.00 in0.0 mm 0.00 in0.0 mm 0.05 in1.3 mm
03:15 PM 83.7°F28.7°C 76.1°F24.5°C 78% 1.0 mph E1.6 kmh E 6.1 mph9.8 kmh 30.02 in1016.6 mb 0.00 in0.0 mm 0.00 in0.0 mm 0.05 in1.3 mm
03:30 PM 84.0°F28.9°C 76.8°F24.9°C 79% 5.0 mph NE8.0 kmh NE 5.1 mph8.2 kmh 30.02 in1016.6 mb 0.00 in0.0 mm 0.00 in0.0 mm 0.05 in1.3 mm
03:45 PM 83.4°F28.6°C 76.2°F24.6°C 79% 9.0 mph N14.5 kmh N 9.1 mph14.6 kmh 30.01 in1016.3 mb 0.00 in0.0 mm 0.00 in0.0 mm 0.05 in1.3 mm
04:00 PM 83.3°F28.5°C 76.5°F24.7°C 80% 5.0 mph E8.0 kmh E 8.1 mph13.0 kmh 30.01 in1016.3 mb 0.00 in0.0 mm 0.00 in0.0 mm 0.05 in1.3 mm
04:15 PM 82.5°F28.1°C 76.1°F24.5°C 81% 2.0 mph N3.2 kmh N 10.1 mph16.3 kmh 30.01 in1016.3 mb 0.00 in0.0 mm 0.00 in0.0 mm 0.05 in1.3 mm
04:30 PM 81.9°F27.7°C 76.2°F24.6°C 83% 2.0 mph NE3.2 kmh NE 5.1 mph8.2 kmh 30.00 in1015.9 mb 0.00 in0.0 mm 0.00 in0.0 mm 0.05 in1.3 mm
04:45 PM 81.6°F27.6°C 76.3°F24.6°C 84% 5.0 mph E8.0 kmh E 10.1 mph16.3 kmh 30.01 in1016.3 mb 0.00 in0.0 mm 0.00 in0.0 mm 0.05 in1.3 mm
05:00 PM 80.0°F26.7°C 74.7°F23.7°C 84% 4.0 mph NE6.4 kmh NE 8.1 mph13.0 kmh 30.01 in1016.3 mb 0.00 in0.0 mm 0.00 in0.0 mm 0.05 in1.3 mm
05:15 PM 79.5°F26.4°C 74.6°F23.7°C 85% 4.0 mph NNE6.4 kmh NNE 6.1 mph9.8 kmh 30.02 in1016.6 mb 0.00 in0.0 mm 0.00 in0.0 mm 0.05 in1.3 mm
05:30 PM 78.9°F26.1°C 74.4°F23.6°C 86% 2.0 mph ENE3.2 kmh ENE 4.0 mph6.4 kmh 30.02 in1016.6 mb 0.00 in0.0 mm 0.00 in0.0 mm 0.05 in1.3 mm
05:45 PM 79.5°F26.4°C 74.6°F23.7°C 85% 4.0 mph E6.4 kmh E 8.1 mph13.0 kmh 30.02 in1016.6 mb 0.00 in0.0 mm 0.00 in0.0 mm 0.05 in1.3 mm
06:00 PM 80.1°F26.7°C 75.2°F24.0°C 85% 8.0 mph NNE12.9 kmh NNE 10.1 mph16.3 kmh 30.02 in1016.6 mb 0.00 in0.0 mm 0.00 in0.0 mm 0.05 in1.3 mm
06:15 PM 80.4°F26.9°C 75.1°F23.9°C 84% 3.0 mph E4.8 kmh E 8.1 mph13.0 kmh 30.02 in1016.6 mb 0.00 in0.0 mm 0.00 in0.0 mm 0.05 in1.3 mm
06:30 PM 80.2°F26.8°C 75.3°F24.1°C 85% 7.0 mph SE11.3 kmh SE 8.1 mph13.0 kmh 30.01 in1016.3 mb 0.00 in0.0 mm 0.00 in0.0 mm 0.05 in1.3 mm
06:45 PM 79.9°F26.6°C 75.3°F24.1°C 86% 6.0 mph ENE9.7 kmh ENE 7.1 mph11.4 kmh 30.01 in1016.3 mb 0.00 in0.0 mm 0.00 in0.0 mm 0.05 in1.3 mm
07:00 PM 79.5°F26.4°C 75.3°F24.1°C 87% 5.0 mph NNE8.0 kmh NNE 7.1 mph11.4 kmh 30.02 in1016.6 mb 0.00 in0.0 mm 0.00 in0.0 mm 0.05 in1.3 mm
07:15 PM 78.9°F26.1°C 74.7°F23.7°C 87% 5.0 mph E8.0 kmh E 6.1 mph9.8 kmh 30.03 in1016.9 mb 0.00 in0.0 mm 0.00 in0.0 mm 0.05 in1.3 mm
07:30 PM 78.5°F25.8°C 74.6°F23.7°C 88% 2.0 mph NE3.2 kmh NE 4.0 mph6.4 kmh 30.03 in1016.9 mb 0.00 in0.0 mm 0.00 in0.0 mm 0.05 in1.3 mm
07:45 PM 78.0°F25.6°C 74.2°F23.4°C 88% 3.0 mph ENE4.8 kmh ENE 9.1 mph14.6 kmh 30.03 in1016.9 mb 0.00 in0.0 mm 0.00 in0.0 mm 0.05 in1.3 mm
08:00 PM 77.3°F25.2°C 73.8°F23.2°C 89% 1.0 mph NE1.6 kmh NE 4.0 mph6.4 kmh 30.04 in1017.3 mb 0.00 in0.0 mm 0.00 in0.0 mm 0.05 in1.3 mm
08:15 PM 77.0°F25.0°C 73.8°F23.2°C 90% 1.0 mph E1.6 kmh E 6.1 mph9.8 kmh 30.04 in1017.3 mb 0.00 in0.0 mm 0.00 in0.0 mm 0.05 in1.3 mm
08:30 PM 76.8°F24.9°C 73.6°F23.1°C 90% 4.0 mph E6.4 kmh E 4.0 mph6.4 kmh 30.05 in1017.6 mb 0.00 in0.0 mm 0.00 in0.0 mm 0.05 in1.3 mm
08:45 PM 76.7°F24.8°C 73.5°F23.1°C 90% 2.0 mph E3.2 kmh E 9.1 mph14.6 kmh 30.05 in1017.6 mb 0.00 in0.0 mm 0.00 in0.0 mm 0.05 in1.3 mm
09:00 PM 76.4°F24.7°C 73.2°F22.9°C 90% 2.0 mph SE3.2 kmh SE 4.0 mph6.4 kmh 30.05 in1017.6 mb 0.00 in0.0 mm 0.00 in0.0 mm 0.05 in1.3 mm
09:15 PM 76.2°F24.6°C 73.4°F23.0°C 91% 5.0 mph E8.0 kmh E 6.1 mph9.8 kmh 30.06 in1017.9 mb 0.00 in0.0 mm 0.00 in0.0 mm 0.05 in1.3 mm
09:30 PM 76.2°F24.6°C 73.7°F23.2°C 92% 2.0 mph SE3.2 kmh SE 7.1 mph11.4 kmh 30.07 in1018.3 mb 0.00 in0.0 mm 0.00 in0.0 mm 0.05 in1.3 mm
09:45 PM 76.1°F24.5°C 73.6°F23.1°C 92% 3.0 mph SE4.8 kmh SE 7.1 mph11.4 kmh 30.07 in1018.3 mb 0.00 in0.0 mm 0.00 in0.0 mm 0.05 in1.3 mm
10:00 PM 75.9°F24.4°C 73.4°F23.0°C 92% 10.0 mph ESE16.1 kmh ESE 10.1 mph16.3 kmh 30.07 in1018.3 mb 0.00 in0.0 mm 0.00 in0.0 mm 0.05 in1.3 mm
10:15 PM 75.8°F24.3°C 73.6°F23.1°C 93% 1.0 mph ENE1.6 kmh ENE 5.1 mph8.2 kmh 30.07 in1018.3 mb 0.00 in0.0 mm 0.00 in0.0 mm 0.05 in1.3 mm
10:30 PM 75.6°F24.2°C 73.4°F23.0°C 93% 2.0 mph SE3.2 kmh SE 3.0 mph4.8 kmh 30.07 in1018.3 mb 0.00 in0.0 mm 0.00 in0.0 mm 0.05 in1.3 mm
10:45 PM 75.5°F24.2°C 73.3°F22.9°C 93% 2.0 mph SE3.2 kmh SE 4.0 mph6.4 kmh 30.07 in1018.3 mb 0.00 in0.0 mm 0.00 in0.0 mm 0.05 in1.3 mm
11:00 PM 75.3°F24.1°C 73.4°F23.0°C 94% Calm Calm 4.0 mph6.4 kmh 30.07 in1018.3 mb 0.00 in0.0 mm 0.00 in0.0 mm 0.05 in1.3 mm
11:15 PM 75.2°F24.0°C 73.3°F22.9°C 94% 2.0 mph E3.2 kmh E 3.0 mph4.8 kmh 30.07 in1018.3 mb 0.00 in0.0 mm 0.00 in0.0 mm 0.05 in1.3 mm
11:30 PM 75.1°F23.9°C 73.2°F22.9°C 94% 3.0 mph ESE4.8 kmh ESE 4.0 mph6.4 kmh 30.07 in1018.3 mb 0.00 in0.0 mm 0.00 in0.0 mm 0.05 in1.3 mm
11:45 PM 75.1°F23.9°C 73.6°F23.1°C 95% 4.0 mph SE6.4 kmh SE 8.1 mph13.0 kmh 30.06 in1017.9 mb 0.00 in0.0 mm 0.00 in0.0 mm 0.05 in1.3 mm